sensor_id;sensor_type;location;lat;lon;timestamp;temperature;humidity
76040;SHT30;64736;50.462;4.850;2023-08-20T00:01:26;20.06;86.10
76040;SHT30;64736;50.462;4.850;2023-08-20T00:03:53;20.01;86.05
76040;SHT30;64736;50.462;4.850;2023-08-20T00:06:20;20.16;85.38
76040;SHT30;64736;50.462;4.850;2023-08-20T00:08:47;20.09;85.66
76040;SHT30;64736;50.462;4.850;2023-08-20T00:11:13;20.06;86.19
76040;SHT30;64736;50.462;4.850;2023-08-20T00:13:39;19.93;86.66
76040;SHT30;64736;50.462;4.850;2023-08-20T00:16:05;19.75;86.19
76040;SHT30;64736;50.462;4.850;2023-08-20T00:18:32;19.99;85.82
76040;SHT30;64736;50.462;4.850;2023-08-20T00:20:58;20.33;85.26
76040;SHT30;64736;50.462;4.850;2023-08-20T00:23:25;20.29;85.17
76040;SHT30;64736;50.462;4.850;2023-08-20T00:25:51;20.16;85.51
76040;SHT30;64736;50.462;4.850;2023-08-20T00:28:19;20.30;84.98
76040;SHT30;64736;50.462;4.850;2023-08-20T00:30:44;20.28;84.71
76040;SHT30;64736;50.462;4.850;2023-08-20T00:33:10;20.23;84.90
76040;SHT30;64736;50.462;4.850;2023-08-20T00:35:36;19.98;85.58
76040;SHT30;64736;50.462;4.850;2023-08-20T00:38:02;20.08;85.16
76040;SHT30;64736;50.462;4.850;2023-08-20T00:40:28;20.06;85.16
76040;SHT30;64736;50.462;4.850;2023-08-20T00:42:54;19.93;85.63
76040;SHT30;64736;50.462;4.850;2023-08-20T00:45:19;19.96;85.48
76040;SHT30;64736;50.462;4.850;2023-08-20T00:47:45;19.89;85.48
76040;SHT30;64736;50.462;4.850;2023-08-20T00:50:11;19.88;85.62
76040;SHT30;64736;50.462;4.850;2023-08-20T00:52:38;19.93;85.13
76040;SHT30;64736;50.462;4.850;2023-08-20T00:55:11;19.79;85.39
76040;SHT30;64736;50.462;4.850;2023-08-20T00:57:39;19.86;85.44
76040;SHT30;64736;50.462;4.850;2023-08-20T01:00:06;19.79;85.56
76040;SHT30;64736;50.462;4.850;2023-08-20T01:02:33;19.82;85.57
76040;SHT30;64736;50.462;4.850;2023-08-20T01:05:00;19.82;85.43
76040;SHT30;64736;50.462;4.850;2023-08-20T01:13:16;19.74;85.81
76040;SHT30;64736;50.462;4.850;2023-08-20T01:15:42;19.50;86.52
76040;SHT30;64736;50.462;4.850;2023-08-20T01:18:08;19.55;86.45
76040;SHT30;64736;50.462;4.850;2023-08-20T01:20:39;19.55;86.32
76040;SHT30;64736;50.462;4.850;2023-08-20T01:26:15;19.55;86.51
76040;SHT30;64736;50.462;4.850;2023-08-20T01:28:45;19.55;86.38
76040;SHT30;64736;50.462;4.850;2023-08-20T01:31:11;19.61;86.40
76040;SHT30;64736;50.462;4.850;2023-08-20T01:33:38;19.47;86.77
76040;SHT30;64736;50.462;4.850;2023-08-20T01:36:07;19.46;86.74
76040;SHT30;64736;50.462;4.850;2023-08-20T01:38:36;19.28;87.43
76040;SHT30;64736;50.462;4.850;2023-08-20T01:41:03;19.44;86.85
76040;SHT30;64736;50.462;4.850;2023-08-20T01:43:29;19.34;86.95
76040;SHT30;64736;50.462;4.850;2023-08-20T01:45:55;19.38;86.62
76040;SHT30;64736;50.462;4.850;2023-08-20T01:48:21;19.41;86.51
76040;SHT30;64736;50.462;4.850;2023-08-20T01:50:47;19.37;86.37
76040;SHT30;64736;50.462;4.850;2023-08-20T01:53:13;19.26;86.57
76040;SHT30;64736;50.462;4.850;2023-08-20T01:55:39;19.14;87.09
76040;SHT30;64736;50.462;4.850;2023-08-20T01:58:05;19.14;87.29
76040;SHT30;64736;50.462;4.850;2023-08-20T02:00:31;19.26;86.80
76040;SHT30;64736;50.462;4.850;2023-08-20T02:02:59;19.33;86.32
76040;SHT30;64736;50.462;4.850;2023-08-20T02:05:25;19.14;86.77
76040;SHT30;64736;50.462;4.850;2023-08-20T02:07:51;19.12;86.90
76040;SHT30;64736;50.462;4.850;2023-08-20T02:10:16;19.00;87.47
76040;SHT30;64736;50.462;4.850;2023-08-20T02:12:43;19.09;87.45
76040;SHT30;64736;50.462;4.850;2023-08-20T02:15:09;19.10;87.71
76040;SHT30;64736;50.462;4.850;2023-08-20T02:17:36;19.12;87.50
76040;SHT30;64736;50.462;4.850;2023-08-20T02:20:03;19.23;86.92
76040;SHT30;64736;50.462;4.850;2023-08-20T02:22:38;19.24;87.20
76040;SHT30;64736;50.462;4.850;2023-08-20T02:25:04;19.16;87.80
76040;SHT30;64736;50.462;4.850;2023-08-20T02:27:29;19.17;87.71
76040;SHT30;64736;50.462;4.850;2023-08-20T02:29:55;19.12;87.89
76040;SHT30;64736;50.462;4.850;2023-08-20T02:32:21;19.10;88.07
76040;SHT30;64736;50.462;4.850;2023-08-20T02:34:50;19.30;87.33
76040;SHT30;64736;50.462;4.850;2023-08-20T02:37:17;19.34;87.22
76040;SHT30;64736;50.462;4.850;2023-08-20T02:39:43;19.41;86.97
76040;SHT30;64736;50.462;4.850;2023-08-20T02:42:08;19.47;86.77
76040;SHT30;64736;50.462;4.850;2023-08-20T02:44:34;19.50;86.66
76040;SHT30;64736;50.462;4.850;2023-08-20T02:47:00;19.50;86.53
76040;SHT30;64736;50.462;4.850;2023-08-20T02:49:25;19.37;86.95
76040;SHT30;64736;50.462;4.850;2023-08-20T02:51:51;19.60;86.35
76040;SHT30;64736;50.462;4.850;2023-08-20T02:54:17;19.51;86.52
76040;SHT30;64736;50.462;4.850;2023-08-20T02:56:42;19.51;86.00
76040;SHT30;64736;50.462;4.850;2023-08-20T02:59:08;19.28;86.71
76040;SHT30;64736;50.462;4.850;2023-08-20T03:01:34;19.40;86.67
76040;SHT30;64736;50.462;4.850;2023-08-20T03:04:00;19.49;85.83
76040;SHT30;64736;50.462;4.850;2023-08-20T03:06:26;19.27;86.36
76040;SHT30;64736;50.462;4.850;2023-08-20T03:08:51;19.37;85.86
76040;SHT30;64736;50.462;4.850;2023-08-20T03:11:17;19.35;86.13
76040;SHT30;64736;50.462;4.850;2023-08-20T03:13:44;18.78;87.73
76040;SHT30;64736;50.462;4.850;2023-08-20T03:16:11;18.71;88.51
76040;SHT30;64736;50.462;4.850;2023-08-20T03:18:36;18.61;89.15
76040;SHT30;64736;50.462;4.850;2023-08-20T03:21:02;18.57;89.37
76040;SHT30;64736;50.462;4.850;2023-08-20T03:23:28;18.57;89.67
76040;SHT30;64736;50.462;4.850;2023-08-20T03:25:58;18.55;89.98
76040;SHT30;64736;50.462;4.850;2023-08-20T03:28:24;18.48;90.35
76040;SHT30;64736;50.462;4.850;2023-08-20T03:30:50;18.49;90.32
76040;SHT30;64736;50.462;4.850;2023-08-20T03:33:15;18.81;89.60
76040;SHT30;64736;50.462;4.850;2023-08-20T03:35:42;18.96;88.46
76040;SHT30;64736;50.462;4.850;2023-08-20T03:38:08;18.96;88.37
76040;SHT30;64736;50.462;4.850;2023-08-20T03:40:34;19.03;88.44
76040;SHT30;64736;50.462;4.850;2023-08-20T03:42:59;18.92;88.71
76040;SHT30;64736;50.462;4.850;2023-08-20T03:45:26;18.72;89.01
76040;SHT30;64736;50.462;4.850;2023-08-20T03:47:52;18.49;90.56
76040;SHT30;64736;50.462;4.850;2023-08-20T03:50:18;18.55;89.96
76040;SHT30;64736;50.462;4.850;2023-08-20T03:52:43;18.98;88.90
76040;SHT30;64736;50.462;4.850;2023-08-20T03:55:09;18.59;89.94
76040;SHT30;64736;50.462;4.850;2023-08-20T03:57:35;18.37;90.53
76040;SHT30;64736;50.462;4.850;2023-08-20T04:00:00;18.30;90.94
76040;SHT30;64736;50.462;4.850;2023-08-20T04:02:26;18.28;90.88
76040;SHT30;64736;50.462;4.850;2023-08-20T04:04:52;18.27;90.74
76040;SHT30;64736;50.462;4.850;2023-08-20T04:07:18;18.17;91.26
76040;SHT30;64736;50.462;4.850;2023-08-20T04:09:43;18.20;91.12
76040;SHT30;64736;50.462;4.850;2023-08-20T04:12:09;18.31;90.78
76040;SHT30;64736;50.462;4.850;2023-08-20T04:14:35;18.44;90.48
76040;SHT30;64736;50.462;4.850;2023-08-20T04:17:01;18.65;89.36
76040;SHT30;64736;50.462;4.850;2023-08-20T04:19:26;18.69;89.04
76040;SHT30;64736;50.462;4.850;2023-08-20T04:21:52;18.65;89.07
76040;SHT30;64736;50.462;4.850;2023-08-20T04:24:18;18.66;88.82
76040;SHT30;64736;50.462;4.850;2023-08-20T04:26:43;18.65;88.99
76040;SHT30;64736;50.462;4.850;2023-08-20T04:29:09;18.69;88.71
76040;SHT30;64736;50.462;4.850;2023-08-20T04:31:35;18.43;89.72
76040;SHT30;64736;50.462;4.850;2023-08-20T04:34:01;18.61;89.33
76040;SHT30;64736;50.462;4.850;2023-08-20T04:36:26;18.82;88.43
76040;SHT30;64736;50.462;4.850;2023-08-20T04:38:52;18.79;88.77
76040;SHT30;64736;50.462;4.850;2023-08-20T04:41:18;18.81;88.60
76040;SHT30;64736;50.462;4.850;2023-08-20T04:43:44;18.45;89.69
76040;SHT30;64736;50.462;4.850;2023-08-20T04:46:09;18.58;89.59
76040;SHT30;64736;50.462;4.850;2023-08-20T04:48:35;18.66;89.32
76040;SHT30;64736;50.462;4.850;2023-08-20T04:51:01;18.66;89.12
76040;SHT30;64736;50.462;4.850;2023-08-20T04:53:27;18.89;88.49
76040;SHT30;64736;50.462;4.850;2023-08-20T04:55:53;18.65;88.99
76040;SHT30;64736;50.462;4.850;2023-08-20T04:58:18;18.72;88.94
76040;SHT30;64736;50.462;4.850;2023-08-20T05:00:44;18.73;88.91
76040;SHT30;64736;50.462;4.850;2023-08-20T05:03:10;18.57;89.45
76040;SHT30;64736;50.462;4.850;2023-08-20T05:05:36;18.82;88.69
76040;SHT30;64736;50.462;4.850;2023-08-20T05:08:01;18.85;88.36
76040;SHT30;64736;50.462;4.850;2023-08-20T05:10:28;18.73;88.86
76040;SHT30;64736;50.462;4.850;2023-08-20T05:12:53;18.73;88.83
76040;SHT30;64736;50.462;4.850;2023-08-20T05:15:19;18.62;88.97
76040;SHT30;64736;50.462;4.850;2023-08-20T05:17:45;18.71;89.15
76040;SHT30;64736;50.462;4.850;2023-08-20T05:20:11;18.68;89.12
76040;SHT30;64736;50.462;4.850;2023-08-20T05:22:37;18.62;89.06
76040;SHT30;64736;50.462;4.850;2023-08-20T05:25:03;18.68;88.87
76040;SHT30;64736;50.462;4.850;2023-08-20T05:27:28;18.65;89.25
76040;SHT30;64736;50.462;4.850;2023-08-20T05:29:54;18.64;89.26
76040;SHT30;64736;50.462;4.850;2023-08-20T05:32:20;18.72;88.72
76040;SHT30;64736;50.462;4.850;2023-08-20T05:34:46;18.71;88.95
76040;SHT30;64736;50.462;4.850;2023-08-20T05:37:12;18.54;89.41
76040;SHT30;64736;50.462;4.850;2023-08-20T05:39:42;18.52;89.80
76040;SHT30;64736;50.462;4.850;2023-08-20T05:42:08;18.69;89.23
76040;SHT30;64736;50.462;4.850;2023-08-20T05:44:34;18.68;89.21
76040;SHT30;64736;50.462;4.850;2023-08-20T05:47:00;18.62;89.25
76040;SHT30;64736;50.462;4.850;2023-08-20T05:49:27;18.64;89.26
76040;SHT30;64736;50.462;4.850;2023-08-20T05:51:53;18.66;89.23
76040;SHT30;64736;50.462;4.850;2023-08-20T05:54:19;18.51;90.09
76040;SHT30;64736;50.462;4.850;2023-08-20T05:56:44;18.69;89.55
76040;SHT30;64736;50.462;4.850;2023-08-20T05:59:10;18.72;89.15
76040;SHT30;64736;50.462;4.850;2023-08-20T06:01:36;18.69;89.65
76040;SHT30;64736;50.462;4.850;2023-08-20T06:04:02;18.59;89.78
76040;SHT30;64736;50.462;4.850;2023-08-20T06:06:27;18.55;90.01
76040;SHT30;64736;50.462;4.850;2023-08-20T06:08:53;18.55;90.32
76040;SHT30;64736;50.462;4.850;2023-08-20T06:11:20;18.40;90.96
76040;SHT30;64736;50.462;4.850;2023-08-20T06:13:46;18.40;90.91
76040;SHT30;64736;50.462;4.850;2023-08-20T06:16:11;18.45;90.63
76040;SHT30;64736;50.462;4.850;2023-08-20T06:18:37;18.57;90.61
76040;SHT30;64736;50.462;4.850;2023-08-20T06:21:03;18.68;90.04
76040;SHT30;64736;50.462;4.850;2023-08-20T06:23:29;18.99;89.13
76040;SHT30;64736;50.462;4.850;2023-08-20T06:25:55;18.91;89.30
76040;SHT30;64736;50.462;4.850;2023-08-20T06:28:21;18.79;89.80
76040;SHT30;64736;50.462;4.850;2023-08-20T06:30:47;18.91;89.60
76040;SHT30;64736;50.462;4.850;2023-08-20T06:33:12;18.99;89.44
76040;SHT30;64736;50.462;4.850;2023-08-20T06:35:39;19.14;88.81
76040;SHT30;64736;50.462;4.850;2023-08-20T06:38:05;19.16;88.78
76040;SHT30;64736;50.462;4.850;2023-08-20T06:40:30;19.00;89.32
76040;SHT30;64736;50.462;4.850;2023-08-20T06:42:56;19.17;89.02
76040;SHT30;64736;50.462;4.850;2023-08-20T06:45:22;19.22;88.82
76040;SHT30;64736;50.462;4.850;2023-08-20T06:47:48;19.12;89.40
76040;SHT30;64736;50.462;4.850;2023-08-20T06:50:14;19.09;89.30
76040;SHT30;64736;50.462;4.850;2023-08-20T06:52:39;18.96;89.24
76040;SHT30;64736;50.462;4.850;2023-08-20T06:55:05;19.19;89.45
76040;SHT30;64736;50.462;4.850;2023-08-20T06:57:31;19.37;88.93
76040;SHT30;64736;50.462;4.850;2023-08-20T06:59:57;19.30;89.12
76040;SHT30;64736;50.462;4.850;2023-08-20T07:02:22;19.41;88.47
76040;SHT30;64736;50.462;4.850;2023-08-20T07:04:48;19.28;87.74
76040;SHT30;64736;50.462;4.850;2023-08-20T07:07:14;19.37;87.79
76040;SHT30;64736;50.462;4.850;2023-08-20T07:09:40;19.40;88.16
76040;SHT30;64736;50.462;4.850;2023-08-20T07:12:06;19.49;87.42
76040;SHT30;64736;50.462;4.850;2023-08-20T07:14:32;19.57;88.04
76040;SHT30;64736;50.462;4.850;2023-08-20T07:16:59;19.67;88.25
76040;SHT30;64736;50.462;4.850;2023-08-20T07:19:25;19.67;86.05
76040;SHT30;64736;50.462;4.850;2023-08-20T07:21:51;19.85;85.77
76040;SHT30;64736;50.462;4.850;2023-08-20T07:24:16;19.98;84.72
76040;SHT30;64736;50.462;4.850;2023-08-20T07:26:42;19.98;84.82
76040;SHT30;64736;50.462;4.850;2023-08-20T07:29:09;19.99;85.11
76040;SHT30;64736;50.462;4.850;2023-08-20T07:31:35;20.26;84.42
76040;SHT30;64736;50.462;4.850;2023-08-20T07:34:03;20.16;84.12
76040;SHT30;64736;50.462;4.850;2023-08-20T07:36:29;20.20;84.41
76040;SHT30;64736;50.462;4.850;2023-08-20T07:38:55;20.32;84.23
76040;SHT30;64736;50.462;4.850;2023-08-20T07:41:21;20.33;84.01
76040;SHT30;64736;50.462;4.850;2023-08-20T07:43:48;20.37;83.41
76040;SHT30;64736;50.462;4.850;2023-08-20T07:46:14;20.51;83.19
76040;SHT30;64736;50.462;4.850;2023-08-20T07:48:40;20.58;82.88
76040;SHT30;64736;50.462;4.850;2023-08-20T07:51:06;20.54;83.44
76040;SHT30;64736;50.462;4.850;2023-08-20T07:53:33;20.64;83.36
76040;SHT30;64736;50.462;4.850;2023-08-20T07:56:01;20.61;83.16
76040;SHT30;64736;50.462;4.850;2023-08-20T07:58:27;20.61;83.32
76040;SHT30;64736;50.462;4.850;2023-08-20T08:00:54;20.78;83.24
76040;SHT30;64736;50.462;4.850;2023-08-20T08:03:20;20.77;83.06
76040;SHT30;64736;50.462;4.850;2023-08-20T08:05:50;20.74;82.87
76040;SHT30;64736;50.462;4.850;2023-08-20T08:08:16;20.76;82.96
76040;SHT30;64736;50.462;4.850;2023-08-20T08:10:43;20.97;82.73
76040;SHT30;64736;50.462;4.850;2023-08-20T08:13:14;20.91;82.46
76040;SHT30;64736;50.462;4.850;2023-08-20T08:15:40;20.97;82.88
76040;SHT30;64736;50.462;4.850;2023-08-20T08:18:07;21.02;82.58
76040;SHT30;64736;50.462;4.850;2023-08-20T08:20:33;21.16;82.24
76040;SHT30;64736;50.462;4.850;2023-08-20T08:22:59;21.24;82.20
76040;SHT30;64736;50.462;4.850;2023-08-20T08:25:25;21.22;82.04
76040;SHT30;64736;50.462;4.850;2023-08-20T08:27:51;21.47;81.24
76040;SHT30;64736;50.462;4.850;2023-08-20T08:30:17;21.56;80.88
76040;SHT30;64736;50.462;4.850;2023-08-20T08:32:43;21.50;80.99
76040;SHT30;64736;50.462;4.850;2023-08-20T08:35:09;21.49;81.06
76040;SHT30;64736;50.462;4.850;2023-08-20T08:37:34;21.64;81.18
76040;SHT30;64736;50.462;4.850;2023-08-20T08:40:01;21.74;81.13
76040;SHT30;64736;50.462;4.850;2023-08-20T08:42:27;21.83;81.02
76040;SHT30;64736;50.462;4.850;2023-08-20T08:44:52;22.02;80.16
76040;SHT30;64736;50.462;4.850;2023-08-20T08:47:21;22.07;79.82
76040;SHT30;64736;50.462;4.850;2023-08-20T08:49:48;22.08;80.15
76040;SHT30;64736;50.462;4.850;2023-08-20T08:52:14;22.15;79.80
76040;SHT30;64736;50.462;4.850;2023-08-20T08:54:40;22.24;79.53
76040;SHT30;64736;50.462;4.850;2023-08-20T08:57:06;22.34;79.60
76040;SHT30;64736;50.462;4.850;2023-08-20T08:59:32;22.49;78.78
76040;SHT30;64736;50.462;4.850;2023-08-20T09:01:58;22.44;79.01
76040;SHT30;64736;50.462;4.850;2023-08-20T09:04:24;22.66;78.97
76040;SHT30;64736;50.462;4.850;2023-08-20T09:06:50;22.72;78.46
76040;SHT30;64736;50.462;4.850;2023-08-20T09:09:17;22.93;78.01
76040;SHT30;64736;50.462;4.850;2023-08-20T09:11:43;22.92;78.28
76040;SHT30;64736;50.462;4.850;2023-08-20T09:14:22;23.14;77.89
76040;SHT30;64736;50.462;4.850;2023-08-20T09:17:01;23.21;76.85
76040;SHT30;64736;50.462;4.850;2023-08-20T09:19:36;23.24;76.99
76040;SHT30;64736;50.462;4.850;2023-08-20T09:22:05;23.43;76.93
76040;SHT30;64736;50.462;4.850;2023-08-20T09:24:42;23.43;76.43
76040;SHT30;64736;50.462;4.850;2023-08-20T09:27:08;23.62;75.97
76040;SHT30;64736;50.462;4.850;2023-08-20T09:32:18;23.73;75.14
76040;SHT30;64736;50.462;4.850;2023-08-20T09:34:44;24.14;74.03
76040;SHT30;64736;50.462;4.850;2023-08-20T09:37:13;25.01;72.41
76040;SHT30;64736;50.462;4.850;2023-08-20T09:39:40;25.97;68.74
76040;SHT30;64736;50.462;4.850;2023-08-20T09:42:06;26.28;67.36
76040;SHT30;64736;50.462;4.850;2023-08-20T09:44:34;27.63;63.98
76040;SHT30;64736;50.462;4.850;2023-08-20T09:47:10;25.63;68.11
76040;SHT30;64736;50.462;4.850;2023-08-20T09:49:47;26.35;66.14
76040;SHT30;64736;50.462;4.850;2023-08-20T09:52:25;28.06;61.90
76040;SHT30;64736;50.462;4.850;2023-08-20T09:55:13;25.78;68.18
76040;SHT30;64736;50.462;4.850;2023-08-20T09:57:42;28.13;62.68
76040;SHT30;64736;50.462;4.850;2023-08-20T10:00:09;26.02;66.08
76040;SHT30;64736;50.462;4.850;2023-08-20T10:02:36;26.22;65.75
76040;SHT30;64736;50.462;4.850;2023-08-20T10:05:07;26.67;64.81
76040;SHT30;64736;50.462;4.850;2023-08-20T10:07:34;27.15;64.08
76040;SHT30;64736;50.462;4.850;2023-08-20T10:10:05;28.14;61.31
76040;SHT30;64736;50.462;4.850;2023-08-20T10:12:32;28.00;60.59
76040;SHT30;64736;50.462;4.850;2023-08-20T10:14:59;27.61;62.08
76040;SHT30;64736;50.462;4.850;2023-08-20T10:17:25;26.91;62.45
76040;SHT30;64736;50.462;4.850;2023-08-20T10:19:52;27.39;61.91
76040;SHT30;64736;50.462;4.850;2023-08-20T10:22:20;27.21;61.99
76040;SHT30;64736;50.462;4.850;2023-08-20T10:24:50;28.38;60.50
76040;SHT30;64736;50.462;4.850;2023-08-20T10:27:37;27.01;61.81
76040;SHT30;64736;50.462;4.850;2023-08-20T10:30:26;26.19;63.78
76040;SHT30;64736;50.462;4.850;2023-08-20T10:32:54;26.60;62.66
76040;SHT30;64736;50.462;4.850;2023-08-20T10:38:13;26.06;65.48
76040;SHT30;64736;50.462;4.850;2023-08-20T10:40:58;26.38;65.81
76040;SHT30;64736;50.462;4.850;2023-08-20T10:43:38;26.38;64.29
76040;SHT30;64736;50.462;4.850;2023-08-20T10:46:15;27.62;61.67
76040;SHT30;64736;50.462;4.850;2023-08-20T10:48:41;27.92;60.49
76040;SHT30;64736;50.462;4.850;2023-08-20T10:51:26;26.77;62.11
76040;SHT30;64736;50.462;4.850;2023-08-20T10:59:22;26.63;62.81
76040;SHT30;64736;50.462;4.850;2023-08-20T11:01:53;26.87;61.92
76040;SHT30;64736;50.462;4.850;2023-08-20T11:04:21;28.04;58.72
76040;SHT30;64736;50.462;4.850;2023-08-20T11:06:52;28.62;56.96
76040;SHT30;64736;50.462;4.850;2023-08-20T11:09:24;27.72;60.13
76040;SHT30;64736;50.462;4.850;2023-08-20T11:11:51;27.76;60.67
76040;SHT30;64736;50.462;4.850;2023-08-20T11:14:18;27.42;61.55
76040;SHT30;64736;50.462;4.850;2023-08-20T11:16:45;28.20;58.21
76040;SHT30;64736;50.462;4.850;2023-08-20T11:19:11;28.68;57.56
76040;SHT30;64736;50.462;4.850;2023-08-20T11:21:42;28.96;57.75
76040;SHT30;64736;50.462;4.850;2023-08-20T11:24:08;28.59;58.01
76040;SHT30;64736;50.462;4.850;2023-08-20T11:26:35;28.67;57.93
76040;SHT30;64736;50.462;4.850;2023-08-20T11:29:09;28.03;58.68
76040;SHT30;64736;50.462;4.850;2023-08-20T11:31:38;27.61;60.18
76040;SHT30;64736;50.462;4.850;2023-08-20T11:34:05;29.47;55.14
76040;SHT30;64736;50.462;4.850;2023-08-20T11:36:32;27.94;57.83
76040;SHT30;64736;50.462;4.850;2023-08-20T11:38:58;29.37;55.29
76040;SHT30;64736;50.462;4.850;2023-08-20T11:41:24;28.27;56.97
76040;SHT30;64736;50.462;4.850;2023-08-20T11:43:51;28.43;56.55
76040;SHT30;64736;50.462;4.850;2023-08-20T11:46:23;28.16;57.37
76040;SHT30;64736;50.462;4.850;2023-08-20T11:49:05;29.89;53.95
76040;SHT30;64736;50.462;4.850;2023-08-20T11:51:42;28.94;56.11
76040;SHT30;64736;50.462;4.850;2023-08-20T11:54:11;29.06;55.44
76040;SHT30;64736;50.462;4.850;2023-08-20T11:56:44;28.83;55.77
76040;SHT30;64736;50.462;4.850;2023-08-20T11:59:11;30.49;51.94
76040;SHT30;64736;50.462;4.850;2023-08-20T12:01:37;34.06;45.07
76040;SHT30;64736;50.462;4.850;2023-08-20T12:04:04;31.45;48.52
76040;SHT30;64736;50.462;4.850;2023-08-20T12:06:30;30.25;51.82
76040;SHT30;64736;50.462;4.850;2023-08-20T12:08:57;30.40;50.96
76040;SHT30;64736;50.462;4.850;2023-08-20T12:11:27;30.61;50.54
76040;SHT30;64736;50.462;4.850;2023-08-20T12:13:54;30.46;50.87
76040;SHT30;64736;50.462;4.850;2023-08-20T12:16:22;32.89;44.73
76040;SHT30;64736;50.462;4.850;2023-08-20T12:18:49;31.10;48.39
76040;SHT30;64736;50.462;4.850;2023-08-20T12:21:15;31.08;49.02
76040;SHT30;64736;50.462;4.850;2023-08-20T12:23:41;30.39;50.40
76040;SHT30;64736;50.462;4.850;2023-08-20T12:26:07;30.60;49.78
76040;SHT30;64736;50.462;4.850;2023-08-20T12:28:35;32.28;46.09
76040;SHT30;64736;50.462;4.850;2023-08-20T12:31:01;32.16;46.36
76040;SHT30;64736;50.462;4.850;2023-08-20T12:33:28;31.94;45.93
76040;SHT30;64736;50.462;4.850;2023-08-20T12:35:55;32.10;45.08
76040;SHT30;64736;50.462;4.850;2023-08-20T12:38:21;32.61;43.70
76040;SHT30;64736;50.462;4.850;2023-08-20T12:40:47;30.42;49.25
76040;SHT30;64736;50.462;4.850;2023-08-20T12:43:13;31.58;46.49
76040;SHT30;64736;50.462;4.850;2023-08-20T12:45:39;31.38;46.83
76040;SHT30;64736;50.462;4.850;2023-08-20T12:48:05;31.69;46.66
76040;SHT30;64736;50.462;4.850;2023-08-20T12:50:31;32.54;45.38
76040;SHT30;64736;50.462;4.850;2023-08-20T12:52:57;32.90;44.51
76040;SHT30;64736;50.462;4.850;2023-08-20T12:55:23;33.10;44.22
76040;SHT30;64736;50.462;4.850;2023-08-20T12:57:56;31.28;47.52
76040;SHT30;64736;50.462;4.850;2023-08-20T13:00:23;31.82;46.17
76040;SHT30;64736;50.462;4.850;2023-08-20T13:02:55;31.62;46.74
76040;SHT30;64736;50.462;4.850;2023-08-20T13:05:23;31.87;46.35
76040;SHT30;64736;50.462;4.850;2023-08-20T13:07:49;32.55;45.04
76040;SHT30;64736;50.462;4.850;2023-08-20T13:10:16;38.14;35.59
76040;SHT30;64736;50.462;4.850;2023-08-20T13:12:42;35.01;40.58
76040;SHT30;64736;50.462;4.850;2023-08-20T13:15:13;35.76;38.60
76040;SHT30;64736;50.462;4.850;2023-08-20T13:17:40;34.32;40.74
76040;SHT30;64736;50.462;4.850;2023-08-20T13:20:06;33.70;41.78
76040;SHT30;64736;50.462;4.850;2023-08-20T13:22:33;33.57;42.14
76040;SHT30;64736;50.462;4.850;2023-08-20T13:24:59;35.52;38.88
76040;SHT30;64736;50.462;4.850;2023-08-20T13:27:25;33.57;42.11
76040;SHT30;64736;50.462;4.850;2023-08-20T13:29:51;33.23;42.98
76040;SHT30;64736;50.462;4.850;2023-08-20T13:32:16;39.51;33.49
76040;SHT30;64736;50.462;4.850;2023-08-20T13:34:42;37.23;36.37
76040;SHT30;64736;50.462;4.850;2023-08-20T13:37:08;34.66;40.84
76040;SHT30;64736;50.462;4.850;2023-08-20T13:39:34;36.92;36.57
76040;SHT30;64736;50.462;4.850;2023-08-20T13:41:59;38.80;34.86
76040;SHT30;64736;50.462;4.850;2023-08-20T13:44:25;37.43;35.23
76040;SHT30;64736;50.462;4.850;2023-08-20T13:46:51;37.53;35.96
76040;SHT30;64736;50.462;4.850;2023-08-20T13:49:17;39.00;33.26
76040;SHT30;64736;50.462;4.850;2023-08-20T13:51:42;38.97;33.81
76040;SHT30;64736;50.462;4.850;2023-08-20T13:54:08;39.06;33.85
76040;SHT30;64736;50.462;4.850;2023-08-20T13:56:34;40.60;32.10
76040;SHT30;64736;50.462;4.850;2023-08-20T13:59:00;35.17;38.74
76040;SHT30;64736;50.462;4.850;2023-08-20T14:01:26;34.46;40.09
76040;SHT30;64736;50.462;4.850;2023-08-20T14:03:52;40.06;32.51
76040;SHT30;64736;50.462;4.850;2023-08-20T14:06:17;39.24;33.98
76040;SHT30;64736;50.462;4.850;2023-08-20T14:08:43;40.68;31.28
76040;SHT30;64736;50.462;4.850;2023-08-20T14:11:09;36.99;36.23
76040;SHT30;64736;50.462;4.850;2023-08-20T14:13:35;36.85;37.40
76040;SHT30;64736;50.462;4.850;2023-08-20T14:16:00;32.85;43.95
76040;SHT30;64736;50.462;4.850;2023-08-20T14:18:26;32.41;44.47
76040;SHT30;64736;50.462;4.850;2023-08-20T14:20:52;36.51;38.18
76040;SHT30;64736;50.462;4.850;2023-08-20T14:23:18;34.64;40.74
76040;SHT30;64736;50.462;4.850;2023-08-20T14:25:43;37.84;36.13
76040;SHT30;64736;50.462;4.850;2023-08-20T14:28:09;35.37;39.14
76040;SHT30;64736;50.462;4.850;2023-08-20T14:30:39;33.03;43.65
76040;SHT30;64736;50.462;4.850;2023-08-20T14:33:05;32.90;44.23
76040;SHT30;64736;50.462;4.850;2023-08-20T14:35:32;37.92;35.98
76040;SHT30;64736;50.462;4.850;2023-08-20T14:37:57;39.70;34.03
76040;SHT30;64736;50.462;4.850;2023-08-20T14:40:23;39.14;33.79
76040;SHT30;64736;50.462;4.850;2023-08-20T14:42:50;37.05;37.24
76040;SHT30;64736;50.462;4.850;2023-08-20T14:45:15;40.02;33.14
76040;SHT30;64736;50.462;4.850;2023-08-20T14:47:41;35.56;39.22
76040;SHT30;64736;50.462;4.850;2023-08-20T14:50:07;36.21;38.83
76040;SHT30;64736;50.462;4.850;2023-08-20T14:52:34;35.31;39.20
76040;SHT30;64736;50.462;4.850;2023-08-20T14:55:00;40.02;32.83
76040;SHT30;64736;50.462;4.850;2023-08-20T14:57:26;36.09;37.77
76040;SHT30;64736;50.462;4.850;2023-08-20T14:59:52;34.60;40.76
76040;SHT30;64736;50.462;4.850;2023-08-20T15:02:18;38.07;35.30
76040;SHT30;64736;50.462;4.850;2023-08-20T15:04:44;38.09;35.33
76040;SHT30;64736;50.462;4.850;2023-08-20T15:07:10;33.57;42.41
76040;SHT30;64736;50.462;4.850;2023-08-20T15:09:35;33.43;43.48
76040;SHT30;64736;50.462;4.850;2023-08-20T15:12:05;34.01;42.48
76040;SHT30;64736;50.462;4.850;2023-08-20T15:14:30;36.91;36.76
76040;SHT30;64736;50.462;4.850;2023-08-20T15:16:56;37.19;36.38
76040;SHT30;64736;50.462;4.850;2023-08-20T15:19:22;35.05;40.91
76040;SHT30;64736;50.462;4.850;2023-08-20T15:21:47;36.68;38.48
76040;SHT30;64736;50.462;4.850;2023-08-20T15:24:13;36.16;38.06
76040;SHT30;64736;50.462;4.850;2023-08-20T15:26:39;35.85;39.95
76040;SHT30;64736;50.462;4.850;2023-08-20T15:29:04;34.84;41.01
76040;SHT30;64736;50.462;4.850;2023-08-20T15:31:31;37.15;37.95
76040;SHT30;64736;50.462;4.850;2023-08-20T15:33:56;39.88;34.30
76040;SHT30;64736;50.462;4.850;2023-08-20T15:36:22;39.69;33.58
76040;SHT30;64736;50.462;4.850;2023-08-20T15:38:48;38.07;35.22
76040;SHT30;64736;50.462;4.850;2023-08-20T15:41:13;34.82;41.45
76040;SHT30;64736;50.462;4.850;2023-08-20T15:43:41;33.54;43.14
76040;SHT30;64736;50.462;4.850;2023-08-20T15:46:07;32.64;44.62
76040;SHT30;64736;50.462;4.850;2023-08-20T15:48:33;33.20;44.32